sensor_id;sensor_type;location;lat;lon;timestamp;P1;durP1;ratioP1;P2;durP2;ratioP2
10719;SDS011;5411;58.386;15.560;2023-09-12T00:00:00;8.70;;;7.53;;
10719;SDS011;5411;58.386;15.560;2023-09-12T00:02:32;9.03;;;7.67;;
10719;SDS011;5411;58.386;15.560;2023-09-12T00:05:02;10.77;;;8.80;;
10719;SDS011;5411;58.386;15.560;2023-09-12T00:07:30;9.60;;;8.67;;
10719;SDS011;5411;58.386;15.560;2023-09-12T00:09:58;11.77;;;8.07;;
10719;SDS011;5411;58.386;15.560;2023-09-12T00:12:27;10.97;;;8.67;;
10719;SDS011;5411;58.386;15.560;2023-09-12T00:15:00;10.60;;;9.20;;
10719;SDS011;5411;58.386;15.560;2023-09-12T00:17:31;10.00;;;9.00;;
10719;SDS011;5411;58.386;15.560;2023-09-12T00:19:59;11.67;;;10.47;;
10719;SDS011;5411;58.386;15.560;2023-09-12T00:22:29;11.23;;;9.33;;
10719;SDS011;5411;58.386;15.560;2023-09-12T00:24:57;11.47;;;10.20;;
10719;SDS011;5411;58.386;15.560;2023-09-12T00:27:26;11.90;;;9.20;;
10719;SDS011;5411;58.386;15.560;2023-09-12T00:29:54;10.93;;;9.83;;
10719;SDS011;5411;58.386;15.560;2023-09-12T00:32:23;12.10;;;10.47;;
10719;SDS011;5411;58.386;15.560;2023-09-12T00:34:53;10.37;;;9.30;;
10719;SDS011;5411;58.386;15.560;2023-09-12T00:37:22;12.93;;;10.07;;
10719;SDS011;5411;58.386;15.560;2023-09-12T00:39:53;9.50;;;8.23;;
10719;SDS011;5411;58.386;15.560;2023-09-12T00:42:24;10.80;;;9.47;;
10719;SDS011;5411;58.386;15.560;2023-09-12T00:44:53;11.77;;;10.57;;
10719;SDS011;5411;58.386;15.560;2023-09-12T00:47:25;13.07;;;10.10;;
10719;SDS011;5411;58.386;15.560;2023-09-12T00:49:57;15.43;;;10.87;;
10719;SDS011;5411;58.386;15.560;2023-09-12T00:52:30;12.57;;;11.27;;
10719;SDS011;5411;58.386;15.560;2023-09-12T00:55:02;12.53;;;10.63;;
10719;SDS011;5411;58.386;15.560;2023-09-12T00:57:32;12.60;;;11.20;;
10719;SDS011;5411;58.386;15.560;2023-09-12T01:00:02;12.13;;;10.83;;
10719;SDS011;5411;58.386;15.560;2023-09-12T01:02:37;11.80;;;10.60;;
10719;SDS011;5411;58.386;15.560;2023-09-12T01:05:08;12.30;;;11.10;;
10719;SDS011;5411;58.386;15.560;2023-09-12T01:07:37;11.80;;;9.77;;
10719;SDS011;5411;58.386;15.560;2023-09-12T01:10:09;12.07;;;10.87;;
10719;SDS011;5411;58.386;15.560;2023-09-12T01:12:37;11.77;;;9.80;;
10719;SDS011;5411;58.386;15.560;2023-09-12T01:15:08;11.00;;;9.80;;
10719;SDS011;5411;58.386;15.560;2023-09-12T01:17:41;11.03;;;9.83;;
10719;SDS011;5411;58.386;15.560;2023-09-12T01:20:11;11.67;;;10.30;;
10719;SDS011;5411;58.386;15.560;2023-09-12T01:22:53;13.20;;;10.77;;
10719;SDS011;5411;58.386;15.560;2023-09-12T01:25:38;12.53;;;10.60;;
10719;SDS011;5411;58.386;15.560;2023-09-12T01:28:26;11.07;;;9.97;;
10719;SDS011;5411;58.386;15.560;2023-09-12T01:30:58;13.40;;;9.97;;
10719;SDS011;5411;58.386;15.560;2023-09-12T01:33:29;10.70;;;9.73;;
10719;SDS011;5411;58.386;15.560;2023-09-12T01:36:04;12.13;;;9.37;;
10719;SDS011;5411;58.386;15.560;2023-09-12T01:38:33;13.03;;;11.23;;
10719;SDS011;5411;58.386;15.560;2023-09-12T01:41:01;11.30;;;10.10;;
10719;SDS011;5411;58.386;15.560;2023-09-12T01:43:31;10.80;;;9.67;;
10719;SDS011;5411;58.386;15.560;2023-09-12T01:46:05;13.47;;;10.30;;
10719;SDS011;5411;58.386;15.560;2023-09-12T01:48:35;12.43;;;11.10;;
10719;SDS011;5411;58.386;15.560;2023-09-12T01:51:06;13.87;;;10.80;;
10719;SDS011;5411;58.386;15.560;2023-09-12T01:53:35;12.67;;;10.37;;
10719;SDS011;5411;58.386;15.560;2023-09-12T01:56:04;13.03;;;11.73;;
10719;SDS011;5411;58.386;15.560;2023-09-12T01:58:37;10.83;;;9.83;;
10719;SDS011;5411;58.386;15.560;2023-09-12T02:01:06;11.90;;;10.60;;
10719;SDS011;5411;58.386;15.560;2023-09-12T02:03:34;14.10;;;10.70;;
10719;SDS011;5411;58.386;15.560;2023-09-12T02:06:03;12.30;;;11.03;;
10719;SDS011;5411;58.386;15.560;2023-09-12T02:08:31;15.13;;;11.30;;
10719;SDS011;5411;58.386;15.560;2023-09-12T02:11:00;16.43;;;10.73;;
10719;SDS011;5411;58.386;15.560;2023-09-12T02:13:28;11.87;;;10.53;;
10719;SDS011;5411;58.386;15.560;2023-09-12T02:16:02;13.73;;;11.73;;
10719;SDS011;5411;58.386;15.560;2023-09-12T02:18:30;12.27;;;10.90;;
10719;SDS011;5411;58.386;15.560;2023-09-12T02:20:59;11.73;;;10.50;;
10719;SDS011;5411;58.386;15.560;2023-09-12T02:23:29;11.90;;;10.33;;
10719;SDS011;5411;58.386;15.560;2023-09-12T02:25:58;12.70;;;11.40;;
10719;SDS011;5411;58.386;15.560;2023-09-12T02:28:26;13.53;;;11.80;;
10719;SDS011;5411;58.386;15.560;2023-09-12T02:30:55;12.20;;;10.83;;
10719;SDS011;5411;58.386;15.560;2023-09-12T02:33:24;11.77;;;10.63;;
10719;SDS011;5411;58.386;15.560;2023-09-12T02:35:53;11.53;;;10.33;;
10719;SDS011;5411;58.386;15.560;2023-09-12T02:38:21;13.13;;;11.40;;
10719;SDS011;5411;58.386;15.560;2023-09-12T02:40:49;13.80;;;11.97;;
10719;SDS011;5411;58.386;15.560;2023-09-12T02:43:19;13.37;;;11.97;;
10719;SDS011;5411;58.386;15.560;2023-09-12T02:45:47;17.67;;;11.13;;
10719;SDS011;5411;58.386;15.560;2023-09-12T02:48:15;12.87;;;11.50;;
10719;SDS011;5411;58.386;15.560;2023-09-12T02:50:46;13.33;;;11.93;;
10719;SDS011;5411;58.386;15.560;2023-09-12T02:53:14;15.23;;;11.67;;
10719;SDS011;5411;58.386;15.560;2023-09-12T02:55:45;12.97;;;11.17;;
10719;SDS011;5411;58.386;15.560;2023-09-12T02:58:13;13.57;;;11.03;;
10719;SDS011;5411;58.386;15.560;2023-09-12T03:00:41;12.73;;;11.40;;
10719;SDS011;5411;58.386;15.560;2023-09-12T03:03:10;12.57;;;11.07;;
10719;SDS011;5411;58.386;15.560;2023-09-12T03:05:44;15.70;;;11.43;;
10719;SDS011;5411;58.386;15.560;2023-09-12T03:08:13;13.00;;;11.33;;
10719;SDS011;5411;58.386;15.560;2023-09-12T03:10:42;13.13;;;11.73;;
10719;SDS011;5411;58.386;15.560;2023-09-12T03:13:11;14.47;;;11.40;;
10719;SDS011;5411;58.386;15.560;2023-09-12T03:15:39;12.30;;;11.10;;
10719;SDS011;5411;58.386;15.560;2023-09-12T03:18:09;14.33;;;11.63;;
10719;SDS011;5411;58.386;15.560;2023-09-12T03:20:38;15.83;;;11.23;;
10719;SDS011;5411;58.386;15.560;2023-09-12T03:23:08;13.20;;;11.87;;
10719;SDS011;5411;58.386;15.560;2023-09-12T03:25:36;12.63;;;11.33;;
10719;SDS011;5411;58.386;15.560;2023-09-12T03:28:05;13.57;;;11.67;;
10719;SDS011;5411;58.386;15.560;2023-09-12T03:30:33;13.17;;;11.17;;
10719;SDS011;5411;58.386;15.560;2023-09-12T03:33:04;14.90;;;11.83;;
10719;SDS011;5411;58.386;15.560;2023-09-12T03:35:34;12.53;;;11.07;;
10719;SDS011;5411;58.386;15.560;2023-09-12T03:38:02;12.97;;;11.60;;
10719;SDS011;5411;58.386;15.560;2023-09-12T03:40:33;13.77;;;11.53;;
10719;SDS011;5411;58.386;15.560;2023-09-12T03:43:01;13.20;;;11.43;;
10719;SDS011;5411;58.386;15.560;2023-09-12T03:45:29;13.03;;;11.53;;
10719;SDS011;5411;58.386;15.560;2023-09-12T03:47:58;13.23;;;11.83;;
10719;SDS011;5411;58.386;15.560;2023-09-12T03:50:26;13.87;;;11.63;;
10719;SDS011;5411;58.386;15.560;2023-09-12T03:52:54;15.57;;;12.10;;
10719;SDS011;5411;58.386;15.560;2023-09-12T03:55:23;15.23;;;11.70;;
10719;SDS011;5411;58.386;15.560;2023-09-12T03:57:52;14.37;;;11.83;;
10719;SDS011;5411;58.386;15.560;2023-09-12T04:00:21;13.23;;;11.70;;
10719;SDS011;5411;58.386;15.560;2023-09-12T04:02:49;16.70;;;12.37;;
10719;SDS011;5411;58.386;15.560;2023-09-12T04:05:18;13.77;;;12.03;;
10719;SDS011;5411;58.386;15.560;2023-09-12T04:07:46;12.50;;;11.20;;
10719;SDS011;5411;58.386;15.560;2023-09-12T04:10:14;13.43;;;12.03;;
10719;SDS011;5411;58.386;15.560;2023-09-12T04:12:46;16.40;;;13.00;;
10719;SDS011;5411;58.386;15.560;2023-09-12T04:15:16;15.63;;;13.00;;
10719;SDS011;5411;58.386;15.560;2023-09-12T04:17:45;13.90;;;12.23;;
10719;SDS011;5411;58.386;15.560;2023-09-12T04:20:13;15.07;;;12.60;;
10719;SDS011;5411;58.386;15.560;2023-09-12T04:22:42;15.50;;;13.07;;
10719;SDS011;5411;58.386;15.560;2023-09-12T04:25:10;14.00;;;12.27;;
10719;SDS011;5411;58.386;15.560;2023-09-12T04:27:40;15.07;;;13.23;;
10719;SDS011;5411;58.386;15.560;2023-09-12T04:30:09;14.10;;;12.63;;
10719;SDS011;5411;58.386;15.560;2023-09-12T04:32:39;13.63;;;12.23;;
10719;SDS011;5411;58.386;15.560;2023-09-12T04:35:08;15.20;;;13.07;;
10719;SDS011;5411;58.386;15.560;2023-09-12T04:37:36;14.63;;;12.60;;
10719;SDS011;5411;58.386;15.560;2023-09-12T04:40:06;13.57;;;12.17;;
10719;SDS011;5411;58.386;15.560;2023-09-12T04:42:36;15.70;;;12.83;;
10719;SDS011;5411;58.386;15.560;2023-09-12T04:45:04;14.13;;;12.60;;
10719;SDS011;5411;58.386;15.560;2023-09-12T04:47:33;14.93;;;13.33;;
10719;SDS011;5411;58.386;15.560;2023-09-12T04:50:05;14.53;;;12.90;;
10719;SDS011;5411;58.386;15.560;2023-09-12T04:52:34;16.33;;;12.63;;
10719;SDS011;5411;58.386;15.560;2023-09-12T04:55:03;14.13;;;12.70;;
10719;SDS011;5411;58.386;15.560;2023-09-12T04:57:31;14.97;;;13.10;;
10719;SDS011;5411;58.386;15.560;2023-09-12T05:00:00;14.60;;;12.87;;
10719;SDS011;5411;58.386;15.560;2023-09-12T05:02:28;15.67;;;13.00;;
10719;SDS011;5411;58.386;15.560;2023-09-12T05:04:56;16.03;;;13.07;;
10719;SDS011;5411;58.386;15.560;2023-09-12T05:07:27;13.80;;;12.40;;
10719;SDS011;5411;58.386;15.560;2023-09-12T05:09:55;14.37;;;12.87;;
10719;SDS011;5411;58.386;15.560;2023-09-12T05:12:23;14.23;;;12.50;;
10719;SDS011;5411;58.386;15.560;2023-09-12T05:14:52;15.60;;;13.30;;
10719;SDS011;5411;58.386;15.560;2023-09-12T05:17:20;12.90;;;11.60;;
10719;SDS011;5411;58.386;15.560;2023-09-12T05:19:48;14.27;;;12.63;;
10719;SDS011;5411;58.386;15.560;2023-09-12T05:22:17;14.47;;;12.27;;
10719;SDS011;5411;58.386;15.560;2023-09-12T05:24:46;13.70;;;12.17;;
10719;SDS011;5411;58.386;15.560;2023-09-12T05:27:16;14.90;;;11.50;;
10719;SDS011;5411;58.386;15.560;2023-09-12T05:29:44;12.90;;;11.67;;
10719;SDS011;5411;58.386;15.560;2023-09-12T05:32:13;13.10;;;11.63;;
10719;SDS011;5411;58.386;15.560;2023-09-12T05:34:42;14.00;;;11.90;;
10719;SDS011;5411;58.386;15.560;2023-09-12T05:37:11;14.47;;;12.30;;
10719;SDS011;5411;58.386;15.560;2023-09-12T05:39:39;15.87;;;11.67;;
10719;SDS011;5411;58.386;15.560;2023-09-12T05:42:09;14.60;;;12.20;;
10719;SDS011;5411;58.386;15.560;2023-09-12T05:44:38;14.73;;;11.50;;
10719;SDS011;5411;58.386;15.560;2023-09-12T05:47:06;12.60;;;11.30;;
10719;SDS011;5411;58.386;15.560;2023-09-12T05:49:35;13.77;;;11.37;;
10719;SDS011;5411;58.386;15.560;2023-09-12T05:52:03;15.40;;;12.20;;
10719;SDS011;5411;58.386;15.560;2023-09-12T05:54:32;12.87;;;11.47;;
10719;SDS011;5411;58.386;15.560;2023-09-12T05:57:01;14.00;;;12.03;;
10719;SDS011;5411;58.386;15.560;2023-09-12T05:59:31;14.43;;;12.57;;
10719;SDS011;5411;58.386;15.560;2023-09-12T06:02:00;13.03;;;11.60;;
10719;SDS011;5411;58.386;15.560;2023-09-12T06:04:29;12.40;;;11.13;;
10719;SDS011;5411;58.386;15.560;2023-09-12T06:06:57;12.40;;;11.10;;
10719;SDS011;5411;58.386;15.560;2023-09-12T06:09:26;13.77;;;12.37;;
10719;SDS011;5411;58.386;15.560;2023-09-12T06:11:54;13.97;;;12.47;;
10719;SDS011;5411;58.386;15.560;2023-09-12T06:14:22;13.17;;;11.57;;
10719;SDS011;5411;58.386;15.560;2023-09-12T06:16:52;15.93;;;13.43;;
10719;SDS011;5411;58.386;15.560;2023-09-12T06:19:21;13.37;;;11.80;;
10719;SDS011;5411;58.386;15.560;2023-09-12T06:21:49;16.47;;;13.47;;
10719;SDS011;5411;58.386;15.560;2023-09-12T06:24:19;16.50;;;12.93;;
10719;SDS011;5411;58.386;15.560;2023-09-12T06:26:48;15.70;;;13.80;;
10719;SDS011;5411;58.386;15.560;2023-09-12T06:29:19;17.57;;;13.10;;
10719;SDS011;5411;58.386;15.560;2023-09-12T06:31:47;16.40;;;12.70;;
10719;SDS011;5411;58.386;15.560;2023-09-12T06:34:17;16.13;;;14.43;;
10719;SDS011;5411;58.386;15.560;2023-09-12T06:36:45;16.50;;;13.13;;
10719;SDS011;5411;58.386;15.560;2023-09-12T06:39:14;15.13;;;13.40;;
10719;SDS011;5411;58.386;15.560;2023-09-12T06:41:43;18.73;;;14.90;;
10719;SDS011;5411;58.386;15.560;2023-09-12T06:44:13;14.60;;;13.07;;
10719;SDS011;5411;58.386;15.560;2023-09-12T06:46:41;15.57;;;13.93;;
10719;SDS011;5411;58.386;15.560;2023-09-12T06:49:09;15.43;;;13.53;;
10719;SDS011;5411;58.386;15.560;2023-09-12T06:51:39;18.60;;;15.40;;
10719;SDS011;5411;58.386;15.560;2023-09-12T06:54:08;17.17;;;14.77;;
10719;SDS011;5411;58.386;15.560;2023-09-12T06:56:36;18.67;;;15.20;;
10719;SDS011;5411;58.386;15.560;2023-09-12T06:59:05;18.27;;;16.30;;
10719;SDS011;5411;58.386;15.560;2023-09-12T07:01:33;19.17;;;15.20;;
10719;SDS011;5411;58.386;15.560;2023-09-12T07:04:01;19.83;;;16.20;;
10719;SDS011;5411;58.386;15.560;2023-09-12T07:06:30;19.50;;;15.63;;
10719;SDS011;5411;58.386;15.560;2023-09-12T07:09:01;21.23;;;18.10;;
10719;SDS011;5411;58.386;15.560;2023-09-12T07:11:33;19.97;;;16.90;;
10719;SDS011;5411;58.386;15.560;2023-09-12T07:14:02;18.00;;;15.57;;
10719;SDS011;5411;58.386;15.560;2023-09-12T07:16:31;18.50;;;16.47;;
10719;SDS011;5411;58.386;15.560;2023-09-12T07:18:59;18.83;;;15.27;;
10719;SDS011;5411;58.386;15.560;2023-09-12T07:21:27;16.93;;;14.73;;
10719;SDS011;5411;58.386;15.560;2023-09-12T07:23:56;17.57;;;15.73;;
10719;SDS011;5411;58.386;15.560;2023-09-12T07:26:26;17.73;;;15.30;;
10719;SDS011;5411;58.386;15.560;2023-09-12T07:28:55;18.13;;;16.00;;
10719;SDS011;5411;58.386;15.560;2023-09-12T07:31:23;17.90;;;14.57;;
10719;SDS011;5411;58.386;15.560;2023-09-12T07:33:51;17.67;;;15.63;;
10719;SDS011;5411;58.386;15.560;2023-09-12T07:36:20;18.27;;;15.73;;
10719;SDS011;5411;58.386;15.560;2023-09-12T07:38:48;18.57;;;15.50;;
10719;SDS011;5411;58.386;15.560;2023-09-12T07:41:17;19.30;;;15.33;;
10719;SDS011;5411;58.386;15.560;2023-09-12T07:43:47;19.83;;;15.87;;
10719;SDS011;5411;58.386;15.560;2023-09-12T07:46:15;18.37;;;15.77;;
10719;SDS011;5411;58.386;15.560;2023-09-12T07:48:44;21.67;;;16.43;;
10719;SDS011;5411;58.386;15.560;2023-09-12T07:51:13;20.10;;;16.50;;
10719;SDS011;5411;58.386;15.560;2023-09-12T07:53:44;21.33;;;16.83;;
10719;SDS011;5411;58.386;15.560;2023-09-12T07:56:12;18.23;;;14.93;;
10719;SDS011;5411;58.386;15.560;2023-09-12T07:58:42;18.40;;;15.07;;
10719;SDS011;5411;58.386;15.560;2023-09-12T08:01:12;27.10;;;17.33;;
10719;SDS011;5411;58.386;15.560;2023-09-12T08:03:41;20.00;;;16.90;;
10719;SDS011;5411;58.386;15.560;2023-09-12T08:06:13;18.60;;;15.53;;
10719;SDS011;5411;58.386;15.560;2023-09-12T08:08:42;18.90;;;16.23;;
10719;SDS011;5411;58.386;15.560;2023-09-12T08:11:11;18.60;;;14.93;;
10719;SDS011;5411;58.386;15.560;2023-09-12T08:13:39;17.43;;;15.53;;
10719;SDS011;5411;58.386;15.560;2023-09-12T08:16:08;16.63;;;14.80;;
10719;SDS011;5411;58.386;15.560;2023-09-12T08:18:38;22.43;;;15.97;;
10719;SDS011;5411;58.386;15.560;2023-09-12T08:21:06;19.73;;;15.37;;
10719;SDS011;5411;58.386;15.560;2023-09-12T08:23:34;18.43;;;15.60;;
10719;SDS011;5411;58.386;15.560;2023-09-12T08:26:03;17.33;;;15.33;;
10719;SDS011;5411;58.386;15.560;2023-09-12T08:28:35;18.07;;;15.17;;
10719;SDS011;5411;58.386;15.560;2023-09-12T08:31:04;18.57;;;16.57;;
10719;SDS011;5411;58.386;15.560;2023-09-12T08:33:32;18.57;;;15.17;;
10719;SDS011;5411;58.386;15.560;2023-09-12T08:36:02;19.40;;;15.23;;
10719;SDS011;5411;58.386;15.560;2023-09-12T08:38:33;19.60;;;15.33;;
10719;SDS011;5411;58.386;15.560;2023-09-12T08:41:02;18.17;;;15.17;;
10719;SDS011;5411;58.386;15.560;2023-09-12T08:43:30;16.67;;;14.30;;
10719;SDS011;5411;58.386;15.560;2023-09-12T08:45:59;16.90;;;15.20;;
10719;SDS011;5411;58.386;15.560;2023-09-12T08:48:27;15.20;;;13.60;;
10719;SDS011;5411;58.386;15.560;2023-09-12T08:50:58;18.90;;;14.60;;
10719;SDS011;5411;58.386;15.560;2023-09-12T08:53:31;16.87;;;15.00;;
10719;SDS011;5411;58.386;15.560;2023-09-12T08:56:00;17.97;;;13.90;;
10719;SDS011;5411;58.386;15.560;2023-09-12T08:58:30;17.70;;;14.37;;
10719;SDS011;5411;58.386;15.560;2023-09-12T09:00:59;16.07;;;14.47;;
10719;SDS011;5411;58.386;15.560;2023-09-12T09:03:29;16.90;;;14.00;;
10719;SDS011;5411;58.386;15.560;2023-09-12T09:05:59;15.67;;;14.07;;
10719;SDS011;5411;58.386;15.560;2023-09-12T09:08:32;15.40;;;13.80;;
10719;SDS011;5411;58.386;15.560;2023-09-12T09:11:01;16.00;;;14.30;;
10719;SDS011;5411;58.386;15.560;2023-09-12T09:13:32;14.83;;;13.30;;
10719;SDS011;5411;58.386;15.560;2023-09-12T09:16:09;15.40;;;13.90;;
10719;SDS011;5411;58.386;15.560;2023-09-12T09:21:30;15.27;;;13.00;;
10719;SDS011;5411;58.386;15.560;2023-09-12T09:24:02;15.50;;;13.80;;
10719;SDS011;5411;58.386;15.560;2023-09-12T09:26:41;16.40;;;14.43;;
10719;SDS011;5411;58.386;15.560;2023-09-12T09:29:12;16.00;;;14.30;;
10719;SDS011;5411;58.386;15.560;2023-09-12T09:31:42;16.27;;;13.73;;
10719;SDS011;5411;58.386;15.560;2023-09-12T09:34:12;15.00;;;13.27;;
10719;SDS011;5411;58.386;15.560;2023-09-12T09:36:43;14.50;;;12.97;;
10719;SDS011;5411;58.386;15.560;2023-09-12T09:39:13;15.93;;;14.13;;
10719;SDS011;5411;58.386;15.560;2023-09-12T09:41:46;15.20;;;13.43;;
10719;SDS011;5411;58.386;15.560;2023-09-12T09:44:15;15.67;;;14.00;;
10719;SDS011;5411;58.386;15.560;2023-09-12T09:46:50;15.07;;;13.57;;
10719;SDS011;5411;58.386;15.560;2023-09-12T09:49:19;15.30;;;13.73;;
10719;SDS011;5411;58.386;15.560;2023-09-12T09:51:48;14.97;;;13.47;;
10719;SDS011;5411;58.386;15.560;2023-09-12T09:54:22;14.63;;;13.13;;
10719;SDS011;5411;58.386;15.560;2023-09-12T09:56:53;15.77;;;13.37;;
10719;SDS011;5411;58.386;15.560;2023-09-12T09:59:23;14.50;;;13.00;;
10719;SDS011;5411;58.386;15.560;2023-09-12T10:01:53;14.20;;;12.70;;
10719;SDS011;5411;58.386;15.560;2023-09-12T10:04:24;15.40;;;13.23;;
10719;SDS011;5411;58.386;15.560;2023-09-12T10:06:55;15.40;;;13.80;;
10719;SDS011;5411;58.386;15.560;2023-09-12T10:09:27;15.00;;;13.47;;
10719;SDS011;5411;58.386;15.560;2023-09-12T10:11:56;15.43;;;13.93;;
10719;SDS011;5411;58.386;15.560;2023-09-12T10:14:29;15.40;;;13.80;;
10719;SDS011;5411;58.386;15.560;2023-09-12T10:17:00;14.93;;;13.43;;
10719;SDS011;5411;58.386;15.560;2023-09-12T10:19:35;13.87;;;12.43;;
10719;SDS011;5411;58.386;15.560;2023-09-12T10:22:09;14.47;;;12.97;;
10719;SDS011;5411;58.386;15.560;2023-09-12T10:24:47;17.43;;;13.30;;
10719;SDS011;5411;58.386;15.560;2023-09-12T10:27:18;13.37;;;11.67;;
10719;SDS011;5411;58.386;15.560;2023-09-12T10:29:49;12.70;;;11.43;;
10719;SDS011;5411;58.386;15.560;2023-09-12T10:32:23;12.10;;;10.90;;
10719;SDS011;5411;58.386;15.560;2023-09-12T10:34:54;12.20;;;9.60;;
10719;SDS011;5411;58.386;15.560;2023-09-12T10:37:26;10.97;;;9.47;;
10719;SDS011;5411;58.386;15.560;2023-09-12T10:39:58;9.73;;;8.73;;
10719;SDS011;5411;58.386;15.560;2023-09-12T10:42:30;9.20;;;8.03;;
10719;SDS011;5411;58.386;15.560;2023-09-12T10:45:00;8.63;;;7.83;;
10719;SDS011;5411;58.386;15.560;2023-09-12T10:47:30;8.10;;;7.30;;
10719;SDS011;5411;58.386;15.560;2023-09-12T10:49:59;8.23;;;7.43;;
10719;SDS011;5411;58.386;15.560;2023-09-12T10:52:32;8.03;;;7.23;;
10719;SDS011;5411;58.386;15.560;2023-09-12T10:55:05;7.93;;;6.73;;
10719;SDS011;5411;58.386;15.560;2023-09-12T10:57:34;7.20;;;6.50;;
10719;SDS011;5411;58.386;15.560;2023-09-12T11:00:12;6.67;;;5.97;;
10719;SDS011;5411;58.386;15.560;2023-09-12T11:02:42;6.90;;;6.30;;
10719;SDS011;5411;58.386;15.560;2023-09-12T11:08:05;7.17;;;6.57;;
10719;SDS011;5411;58.386;15.560;2023-09-12T11:10:35;6.57;;;5.97;;
10719;SDS011;5411;58.386;15.560;2023-09-12T11:13:08;6.83;;;5.97;;
10719;SDS011;5411;58.386;15.560;2023-09-12T11:21:40;7.13;;;6.43;;
10719;SDS011;5411;58.386;15.560;2023-09-12T11:24:09;8.00;;;6.73;;
10719;SDS011;5411;58.386;15.560;2023-09-12T11:26:58;7.17;;;6.47;;
10719;SDS011;5411;58.386;15.560;2023-09-12T11:29:29;7.10;;;6.40;;
10719;SDS011;5411;58.386;15.560;2023-09-12T11:31:58;6.67;;;5.97;;
10719;SDS011;5411;58.386;15.560;2023-09-12T11:34:35;6.73;;;6.13;;
10719;SDS011;5411;58.386;15.560;2023-09-12T11:37:05;6.57;;;5.97;;
10719;SDS011;5411;58.386;15.560;2023-09-12T11:39:34;6.67;;;6.10;;
10719;SDS011;5411;58.386;15.560;2023-09-12T11:42:05;6.93;;;6.13;;
10719;SDS011;5411;58.386;15.560;2023-09-12T11:44:40;7.07;;;6.37;;
10719;SDS011;5411;58.386;15.560;2023-09-12T11:47:11;7.23;;;6.53;;
10719;SDS011;5411;58.386;15.560;2023-09-12T11:49:40;7.27;;;6.57;;
10719;SDS011;5411;58.386;15.560;2023-09-12T11:52:09;7.17;;;6.47;;
10719;SDS011;5411;58.386;15.560;2023-09-12T11:54:40;7.40;;;6.70;;
10719;SDS011;5411;58.386;15.560;2023-09-12T11:57:10;6.80;;;6.10;;
10719;SDS011;5411;58.386;15.560;2023-09-12T11:59:41;7.23;;;6.53;;
10719;SDS011;5411;58.386;15.560;2023-09-12T12:02:11;6.27;;;5.67;;
10719;SDS011;5411;58.386;15.560;2023-09-12T12:04:41;7.33;;;6.50;;
10719;SDS011;5411;58.386;15.560;2023-09-12T12:07:10;7.70;;;6.73;;
10719;SDS011;5411;58.386;15.560;2023-09-12T12:09:38;7.13;;;6.43;;
10719;SDS011;5411;58.386;15.560;2023-09-12T12:12:12;7.33;;;6.20;;
10719;SDS011;5411;58.386;15.560;2023-09-12T12:14:41;7.13;;;6.53;;
10719;SDS011;5411;58.386;15.560;2023-09-12T12:17:11;6.93;;;6.33;;
10719;SDS011;5411;58.386;15.560;2023-09-12T12:19:45;7.47;;;6.77;;
10719;SDS011;5411;58.386;15.560;2023-09-12T12:22:13;7.33;;;6.63;;
10719;SDS011;5411;58.386;15.560;2023-09-12T12:24:45;7.87;;;6.83;;
10719;SDS011;5411;58.386;15.560;2023-09-12T12:27:16;7.80;;;7.10;;
10719;SDS011;5411;58.386;15.560;2023-09-12T12:29:45;8.00;;;7.30;;
10719;SDS011;5411;58.386;15.560;2023-09-12T12:32:18;7.97;;;7.17;;
10719;SDS011;5411;58.386;15.560;2023-09-12T12:34:47;8.10;;;7.30;;
10719;SDS011;5411;58.386;15.560;2023-09-12T12:37:36;8.13;;;7.37;;
10719;SDS011;5411;58.386;15.560;2023-09-12T12:40:05;8.20;;;7.40;;
10719;SDS011;5411;58.386;15.560;2023-09-12T12:42:41;8.33;;;7.57;;
10719;SDS011;5411;58.386;15.560;2023-09-12T12:45:20;8.80;;;8.00;;
10719;SDS011;5411;58.386;15.560;2023-09-12T12:47:50;8.00;;;7.30;;
10719;SDS011;5411;58.386;15.560;2023-09-12T12:50:20;8.33;;;7.53;;
10719;SDS011;5411;58.386;15.560;2023-09-12T12:52:48;8.40;;;7.60;;
10719;SDS011;5411;58.386;15.560;2023-09-12T12:58:03;8.90;;;7.60;;
10719;SDS011;5411;58.386;15.560;2023-09-12T13:00:32;8.27;;;7.43;;
10719;SDS011;5411;58.386;15.560;2023-09-12T13:03:00;8.20;;;7.40;;
10719;SDS011;5411;58.386;15.560;2023-09-12T13:05:31;9.33;;;8.33;;
10719;SDS011;5411;58.386;15.560;2023-09-12T13:08:00;9.73;;;7.83;;
10719;SDS011;5411;58.386;15.560;2023-09-12T13:10:30;8.93;;;7.90;;
10719;SDS011;5411;58.386;15.560;2023-09-12T13:12:58;8.30;;;7.60;;
10719;SDS011;5411;58.386;15.560;2023-09-12T13:15:28;8.10;;;7.30;;
10719;SDS011;5411;58.386;15.560;2023-09-12T13:17:57;8.23;;;7.43;;
10719;SDS011;5411;58.386;15.560;2023-09-12T13:20:25;7.57;;;6.87;;
10719;SDS011;5411;58.386;15.560;2023-09-12T13:22:54;8.13;;;7.43;;
10719;SDS011;5411;58.386;15.560;2023-09-12T13:25:22;8.67;;;7.17;;
10719;SDS011;5411;58.386;15.560;2023-09-12T13:27:51;7.70;;;7.03;;
10719;SDS011;5411;58.386;15.560;2023-09-12T13:30:19;8.97;;;7.07;;
10719;SDS011;5411;58.386;15.560;2023-09-12T13:32:49;7.87;;;7.10;;
10719;SDS011;5411;58.386;15.560;2023-09-12T13:35:17;7.50;;;6.80;;
10719;SDS011;5411;58.386;15.560;2023-09-12T13:37:45;8.07;;;7.27;;
10719;SDS011;5411;58.386;15.560;2023-09-12T13:40:13;9.00;;;7.47;;
10719;SDS011;5411;58.386;15.560;2023-09-12T13:42:42;8.53;;;7.73;;
10719;SDS011;5411;58.386;15.560;2023-09-12T13:45:12;7.70;;;6.97;;
10719;SDS011;5411;58.386;15.560;2023-09-12T13:47:40;8.00;;;7.20;;
10719;SDS011;5411;58.386;15.560;2023-09-12T13:50:11;8.53;;;7.63;;
10719;SDS011;5411;58.386;15.560;2023-09-12T13:52:39;7.13;;;6.50;;
10719;SDS011;5411;58.386;15.560;2023-09-12T13:55:07;8.03;;;7.17;;
10719;SDS011;5411;58.386;15.560;2023-09-12T13:58:01;9.30;;;7.10;;
10719;SDS011;5411;58.386;15.560;2023-09-12T14:00:29;10.33;;;7.03;;
10719;SDS011;5411;58.386;15.560;2023-09-12T14:03:05;8.03;;;7.23;;
10719;SDS011;5411;58.386;15.560;2023-09-12T14:05:35;8.87;;;7.10;;
10719;SDS011;5411;58.386;15.560;2023-09-12T14:08:09;7.23;;;6.53;;
10719;SDS011;5411;58.386;15.560;2023-09-12T14:10:37;7.47;;;6.77;;
10719;SDS011;5411;58.386;15.560;2023-09-12T14:13:07;7.23;;;6.60;;
10719;SDS011;5411;58.386;15.560;2023-09-12T14:15:52;7.43;;;6.73;;
10719;SDS011;5411;58.386;15.560;2023-09-12T14:18:22;7.33;;;6.50;;
10719;SDS011;5411;58.386;15.560;2023-09-12T14:20:53;7.07;;;6.43;;
10719;SDS011;5411;58.386;15.560;2023-09-12T14:23:22;7.10;;;6.40;;
10719;SDS011;5411;58.386;15.560;2023-09-12T14:25:52;6.67;;;6.07;;
10719;SDS011;5411;58.386;15.560;2023-09-12T14:28:22;6.87;;;5.87;;
10719;SDS011;5411;58.386;15.560;2023-09-12T14:30:50;6.53;;;5.93;;
10719;SDS011;5411;58.386;15.560;2023-09-12T14:33:19;6.43;;;5.83;;
10719;SDS011;5411;58.386;15.560;2023-09-12T14:35:48;6.57;;;5.87;;
10719;SDS011;5411;58.386;15.560;2023-09-12T14:38:17;8.00;;;6.07;;
10719;SDS011;5411;58.386;15.560;2023-09-12T14:40:46;6.30;;;5.70;;
10719;SDS011;5411;58.386;15.560;2023-09-12T14:43:14;6.70;;;5.70;;
10719;SDS011;5411;58.386;15.560;2023-09-12T14:45:43;6.20;;;5.60;;
10719;SDS011;5411;58.386;15.560;2023-09-12T14:48:11;6.23;;;5.63;;
10719;SDS011;5411;58.386;15.560;2023-09-12T14:50:40;6.50;;;5.97;;
10719;SDS011;5411;58.386;15.560;2023-09-12T14:53:10;5.70;;;5.20;;
10719;SDS011;5411;58.386;15.560;2023-09-12T14:55:41;7.20;;;6.00;;
10719;SDS011;5411;58.386;15.560;2023-09-12T14:58:10;6.13;;;5.53;;
10719;SDS011;5411;58.386;15.560;2023-09-12T15:00:38;6.37;;;5.70;;